createdAt,value
2019-03-25T00:00:39.623Z,64.75
2019-03-25T00:05:33.632Z,64.51
2019-03-25T00:10:27.744Z,64.37
2019-03-25T00:15:21.741Z,64.48
2019-03-25T00:20:15.785Z,64.61
2019-03-25T00:25:09.771Z,64.76
2019-03-25T00:30:04.662Z,65.62
2019-03-25T00:34:58.627Z,66.29
2019-03-25T00:39:52.593Z,66.93
2019-03-25T00:44:46.597Z,67.65
2019-03-25T00:49:40.592Z,68.22
2019-03-25T00:54:34.554Z,69.11
2019-03-25T00:59:28.831Z,69.08
2019-03-25T01:04:22.833Z,69.25
2019-03-25T01:09:16.811Z,69.05
2019-03-25T01:14:10.780Z,68.31
2019-03-25T01:19:04.739Z,67.93
2019-03-25T01:23:58.803Z,68.14
2019-03-25T01:28:52.774Z,68.40
2019-03-25T01:33:46.737Z,68.42
2019-03-25T01:38:40.698Z,68.48
2019-03-25T01:43:34.776Z,68.82
2019-03-25T01:48:28.739Z,69.29
2019-03-25T01:53:22.709Z,69.84
2019-03-25T01:58:16.769Z,70.05
2019-03-25T02:03:10.711Z,68.89
2019-03-25T02:08:04.681Z,67.97
2019-03-25T02:12:58.748Z,66.48
2019-03-25T02:17:52.719Z,65.22
2019-03-25T02:22:46.870Z,64.59
2019-03-25T02:27:40.938Z,63.97
2019-03-25T02:32:34.993Z,63.87
2019-03-25T02:37:29.268Z,63.64
2019-03-25T02:42:23.261Z,63.84
2019-03-25T02:47:17.513Z,63.80
2019-03-25T02:52:11.493Z,63.50
2019-03-25T02:57:05.436Z,64.04
2019-03-25T03:01:59.403Z,64.01
2019-03-25T03:06:53.493Z,64.12
2019-03-25T03:11:47.464Z,64.31
2019-03-25T03:16:41.545Z,64.98
2019-03-25T03:21:35.523Z,64.98
2019-03-25T03:26:29.477Z,64.99
2019-03-25T03:31:23.477Z,64.85
2019-03-25T03:36:17.512Z,65.16
2019-03-25T03:41:11.479Z,65.78
2019-03-25T03:46:05.635Z,65.91
2019-03-25T03:51:00.117Z,66.16
2019-03-25T03:55:54.180Z,66.94
2019-03-25T04:00:48.331Z,67.22
2019-03-25T04:05:42.365Z,67.65
2019-03-25T04:10:36.325Z,67.86
2019-03-25T04:15:30.590Z,67.95
2019-03-25T04:20:24.554Z,68.07
2019-03-25T04:25:18.530Z,67.96
2019-03-25T04:30:12.686Z,67.87
2019-03-25T04:35:06.958Z,68.04
2019-03-25T04:40:01.487Z,68.10
2019-03-25T04:44:55.425Z,68.65
2019-03-25T04:49:49.416Z,70.61
2019-03-25T04:54:43.389Z,70.72
2019-03-25T04:59:37.444Z,70.21
2019-03-25T05:04:31.409Z,71.46
2019-03-25T05:09:25.404Z,72.36
2019-03-25T05:14:19.404Z,74.54
2019-03-25T05:19:13.425Z,75.81
2019-03-25T05:24:07.431Z,75.91
2019-03-25T05:29:01.495Z,76.58
2019-03-25T05:33:55.455Z,76.34
2019-03-25T05:38:49.405Z,75.53
2019-03-25T05:43:43.366Z,75.61
2019-03-25T05:48:37.365Z,75.67
2019-03-25T05:53:31.325Z,76.04
2019-03-25T05:58:25.471Z,76.13
2019-03-25T06:03:19.629Z,75.90
2019-03-25T06:08:13.656Z,75.47
2019-03-25T06:13:07.638Z,75.37
2019-03-25T06:18:01.751Z,74.68
2019-03-25T06:22:55.829Z,72.85
2019-03-25T06:32:49.934Z,75.06
2019-03-25T06:37:43.953Z,75.67
2019-03-25T06:42:37.925Z,74.48
2019-03-25T06:47:31.962Z,74.37
2019-03-25T06:52:25.922Z,73.56
2019-03-25T06:57:25.503Z,72.91
2019-03-25T07:02:15.996Z,72.60
2019-03-25T07:07:10.130Z,73.14
2019-03-25T07:12:04.215Z,73.33
2019-03-25T07:16:58.182Z,73.00
2019-03-25T07:21:52.264Z,71.26
2019-03-25T07:26:46.433Z,70.33
2019-03-25T07:31:40.523Z,68.58
2019-03-25T07:36:34.527Z,68.33
2019-03-25T07:41:28.513Z,67.41
2019-03-25T07:46:22.579Z,66.84
2019-03-25T07:51:16.817Z,65.79
2019-03-25T07:56:10.886Z,69.60
2019-03-25T08:01:04.872Z,68.75
2019-03-25T08:05:58.939Z,65.40
2019-03-25T08:10:52.941Z,67.03
2019-03-25T08:15:47.042Z,67.08
2019-03-25T08:20:41.087Z,66.51
2019-03-25T08:25:35.139Z,65.39
2019-03-25T08:30:29.434Z,62.21
2019-03-25T08:35:23.396Z,62.58
2019-03-25T08:40:17.472Z,59.31
2019-03-25T08:45:11.590Z,58.39
2019-03-25T08:50:07.217Z,58.00
2019-03-25T08:55:01.182Z,57.86
2019-03-25T08:59:57.464Z,58.35
2019-03-25T09:04:51.220Z,58.21
2019-03-25T09:09:45.286Z,56.51
2019-03-25T09:14:39.227Z,54.58
2019-03-25T09:19:33.320Z,54.60
2019-03-25T09:24:27.288Z,54.11
2019-03-25T09:29:21.389Z,52.17
2019-03-25T09:34:15.686Z,49.79
2019-03-25T09:39:09.886Z,52.18
2019-03-25T09:44:04.095Z,50.69
2019-03-25T09:48:58.211Z,55.57
2019-03-25T09:53:52.168Z,54.97
2019-03-25T09:58:46.316Z,52.40
2019-03-25T10:03:40.401Z,51.85
2019-03-25T10:08:34.481Z,51.94
2019-03-25T10:13:28.500Z,52.22
2019-03-25T10:18:22.584Z,52.16
2019-03-25T10:23:16.554Z,50.14
2019-03-25T10:28:10.543Z,46.26
2019-03-25T10:33:04.643Z,42.35
2019-03-25T10:37:58.641Z,45.36
2019-03-25T10:42:52.594Z,59.08
2019-03-25T10:47:46.596Z,52.86
2019-03-25T10:52:40.803Z,43.58
2019-03-25T10:57:34.851Z,39.50
2019-03-25T11:02:29.332Z,36.38
2019-03-25T11:07:23.475Z,35.94
2019-03-25T11:12:17.484Z,32.27
2019-03-25T11:17:11.552Z,27.94
2019-03-25T11:22:05.648Z,27.54
2019-03-25T11:26:59.628Z,32.44
2019-03-25T11:31:53.609Z,31.54
2019-03-25T11:36:47.679Z,36.38
2019-03-25T11:41:41.760Z,37.70
2019-03-25T11:46:35.930Z,42.00
2019-03-25T11:51:30.087Z,56.00
2019-03-25T11:56:24.071Z,59.94
2019-03-25T12:01:18.136Z,35.42
2019-03-25T12:06:12.220Z,27.40
2019-03-25T12:11:06.294Z,25.79
2019-03-25T12:16:00.367Z,25.21
2019-03-25T12:20:54.389Z,27.88
2019-03-25T12:25:48.570Z,39.70
2019-03-25T12:30:42.634Z,37.29
2019-03-25T12:35:36.715Z,39.17
2019-03-25T12:40:30.895Z,41.99
2019-03-25T12:45:24.901Z,47.33
2019-03-25T12:50:19.326Z,54.37
2019-03-25T12:55:13.399Z,51.98
2019-03-25T13:00:07.790Z,51.49
2019-03-25T13:05:03.072Z,48.23
2019-03-25T13:09:57.159Z,30.39
2019-03-25T13:14:51.148Z,37.18
2019-03-25T13:19:45.137Z,23.61
2019-03-25T13:24:39.194Z,23.97
2019-03-25T13:29:33.282Z,16.49
2019-03-25T13:34:27.405Z,19.12
2019-03-25T13:39:21.430Z,18.01
2019-03-25T13:44:15.561Z,28.07
2019-03-25T13:49:09.577Z,21.84
2019-03-25T13:54:03.871Z,18.71
2019-03-25T13:58:58.077Z,29.90
2019-03-25T14:03:52.146Z,41.23
2019-03-25T14:08:46.110Z,48.74
2019-03-25T14:13:48.692Z,55.06
2019-03-25T14:18:35.981Z,60.76
2019-03-25T14:23:30.018Z,61.86
2019-03-25T14:28:23.991Z,60.29
2019-03-25T14:33:17.973Z,53.84
2019-03-25T14:38:12.068Z,56.53
2019-03-25T14:43:06.314Z,61.78
2019-03-25T14:48:00.556Z,66.60
2019-03-25T14:52:54.649Z,63.96
2019-03-25T14:57:48.740Z,52.01
2019-03-25T15:02:42.745Z,54.13
2019-03-25T15:07:36.893Z,30.54
2019-03-25T15:12:31.188Z,20.38
2019-03-25T15:17:25.190Z,35.58
2019-03-25T15:22:19.146Z,47.64
2019-03-25T15:27:13.140Z,52.04
2019-03-25T15:32:07.126Z,43.43
2019-03-25T15:37:01.345Z,47.69
2019-03-25T15:41:55.477Z,52.92
2019-03-25T15:46:55.641Z,51.48
2019-03-25T15:51:45.347Z,52.92
2019-03-25T15:56:39.367Z,62.73
2019-03-25T16:01:33.443Z,64.72
2019-03-25T16:06:27.407Z,63.89
2019-03-25T16:11:21.489Z,46.72
2019-03-25T16:16:15.541Z,49.58
2019-03-25T16:21:09.727Z,59.33
2019-03-25T16:26:04.139Z,63.50
2019-03-25T16:30:59.208Z,51.01
2019-03-25T16:35:53.427Z,52.96
2019-03-25T16:40:47.422Z,35.92
2019-03-25T16:45:41.403Z,34.08
2019-03-25T16:50:35.421Z,52.53
2019-03-25T16:55:29.508Z,57.17
2019-03-25T17:00:27.577Z,59.73
2019-03-25T17:05:19.501Z,53.97
2019-03-25T17:10:13.519Z,55.05
2019-03-25T17:15:08.187Z,54.92
2019-03-25T17:20:03.518Z,57.94
2019-03-25T17:24:57.812Z,57.54
2019-03-25T17:29:52.012Z,58.64
2019-03-25T17:34:46.003Z,58.06
2019-03-25T17:39:40.016Z,57.59
2019-03-25T17:44:34.101Z,56.60
2019-03-25T17:49:28.320Z,57.92
2019-03-25T17:54:22.692Z,59.27
2019-03-25T17:59:16.772Z,58.63
2019-03-25T18:04:10.875Z,59.47
2019-03-25T18:09:06.103Z,59.74
2019-03-25T18:14:00.093Z,59.46
2019-03-25T18:18:54.270Z,60.13
2019-03-25T18:23:48.286Z,59.63
2019-03-25T18:28:42.592Z,59.24
2019-03-25T18:33:36.691Z,58.80
2019-03-25T18:38:30.925Z,59.05
2019-03-25T18:43:25.053Z,60.80
2019-03-25T18:48:19.726Z,61.60
2019-03-25T18:53:13.899Z,61.50
2019-03-25T18:58:08.295Z,61.76
2019-03-25T19:03:03.200Z,63.19
2019-03-25T19:08:02.527Z,62.32
2019-03-25T19:12:56.568Z,62.07
2019-03-25T19:17:51.232Z,61.62
2019-03-25T19:22:45.423Z,62.04
2019-03-25T19:27:39.409Z,61.49
2019-03-25T19:32:33.401Z,60.94
2019-03-25T19:37:27.552Z,60.97
2019-03-25T19:42:21.620Z,60.68
2019-03-25T19:47:16.080Z,60.88
2019-03-25T19:52:10.344Z,60.79
2019-03-25T19:57:04.503Z,60.46
2019-03-25T20:01:58.463Z,60.00
2019-03-25T20:06:52.721Z,60.83
2019-03-25T20:11:46.890Z,60.83
2019-03-25T20:16:40.985Z,60.66
2019-03-25T20:21:35.127Z,60.81
2019-03-25T20:26:29.165Z,61.02
2019-03-25T20:31:23.227Z,61.29
2019-03-25T20:36:17.382Z,61.19
2019-03-25T20:41:11.429Z,61.66
2019-03-25T20:46:05.666Z,62.30
2019-03-25T20:50:59.857Z,62.18
2019-03-25T20:55:53.933Z,62.94
2019-03-25T21:01:03.634Z,62.40
2019-03-25T21:05:58.103Z,62.59
2019-03-25T21:10:52.193Z,62.39
2019-03-25T21:15:46.390Z,62.88
2019-03-25T21:20:40.403Z,62.95
2019-03-25T21:25:34.505Z,62.79
2019-03-25T21:30:28.679Z,62.86
2019-03-25T21:35:22.863Z,62.46
2019-03-25T21:40:17.061Z,61.92
2019-03-25T21:45:11.183Z,62.12
2019-03-25T21:50:05.931Z,62.64
2019-03-25T21:55:00.012Z,62.95
2019-03-25T21:59:54.089Z,63.14
2019-03-25T22:04:48.212Z,63.39
2019-03-25T22:09:42.193Z,63.46
2019-03-25T22:14:36.277Z,63.78
2019-03-25T22:19:30.440Z,64.00
2019-03-25T22:24:24.400Z,63.78
2019-03-25T22:29:18.487Z,64.02
2019-03-25T22:34:12.467Z,64.65
2019-03-25T22:39:06.597Z,64.60
2019-03-25T22:44:00.565Z,65.03
2019-03-25T22:48:54.588Z,65.42
2019-03-25T22:53:48.570Z,65.91
2019-03-25T22:58:42.662Z,65.70
2019-03-25T23:03:39.331Z,66.30
2019-03-25T23:08:34.537Z,66.19
2019-03-25T23:13:28.709Z,66.49
2019-03-25T23:18:22.788Z,66.67
2019-03-25T23:23:16.767Z,67.18
2019-03-25T23:28:10.835Z,67.52
2019-03-25T23:33:04.799Z,67.33
2019-03-25T23:37:58.993Z,67.62
2019-03-25T23:42:52.961Z,67.96
2019-03-25T23:47:47.036Z,68.33
2019-03-25T23:52:41.130Z,68.74
2019-03-25T23:57:35.084Z,68.71
